Time;durP1;ratioP1;P1;durP2;ratioP2;P2;SDS_P1;SDS_P2;PMS_P1;PMS_P2;Temp;Humidity;BMP_temperature;BMP_pressure;BME280_temperature;BME280_humidity;BME280_pressure;Samples;Min_cycle;Max_cycle;Signal;HPM_P1;HPM_P2
2022/09/24 00:02:39;;;;;;;;;;;;;;;10.87;64.47;100915.68;1543304;86;10000696;-77
2022/09/24 00:05:23;;;;;;;;;;;;;;;10.86;64.55;100910.94;1608360;86;20184;-77
2022/09/24 00:08:08;;;;;;;;;;;;;;;10.87;64.60;100916.53;1630008;86;20180;-77
2022/09/24 00:10:55;;;;;;;;;;;;;;;10.85;64.64;100908.37;1655738;84;20174;-77
2022/09/24 00:13:40;;;;;;;;;;;;;;;10.83;64.63;100906.24;1674538;84;20226;-77
2022/09/24 00:16:29;;;;;;;;;;;;;;;10.80;64.62;100909.72;1665181;84;20659;-77
2022/09/24 00:19:14;;;;;;;;;;;;;;;10.79;64.65;100908.02;1650367;84;20199;-77
2022/09/24 00:21:59;;;;;;;;;;;;;;;10.80;64.66;100910.16;1674867;84;20222;-77
2022/09/24 00:27:46;;;;;;;;;;;;;;;10.77;64.67;100901.14;1655853;84;20609;-77
2022/09/24 00:30:31;;;;;;;;;;;;;;;10.78;64.67;100898.98;1664656;84;21006;-77
2022/09/24 00:33:16;;;;;;;;;;;;;;;10.79;64.69;100900.69;1683130;84;20512;-77
2022/09/24 00:36:04;;;;;;;;;;;;;;;10.78;64.67;100893.80;1656304;84;20231;-77
2022/09/24 00:38:51;;;;;;;;;;;;;;;10.77;64.73;100889.50;1667269;84;20186;-76
2022/09/24 00:41:38;;;;;;;;;;;;;;;10.76;64.74;100889.94;1639578;84;20219;-76
2022/09/24 00:44:45;;;;;;;;;;;;;;;10.75;64.80;100877.88;1652636;84;20195;-76
2022/09/24 00:47:38;;;;;;;;;;;;;;;10.75;64.83;100877.02;1681046;84;20178;-76
2022/09/24 00:50:33;;;;;;;;;;;;;;;10.75;64.83;100873.14;1668329;84;20342;-76
2022/09/24 00:53:21;;;;;;;;;;;;;;;10.75;64.90;100870.56;1650563;84;20217;-76
2022/09/24 00:56:08;;;;;;;;;;;;;;;10.73;64.82;100871.88;1672231;84;20268;-76
2022/09/24 00:58:55;;;;;;;;;;;;;;;10.73;64.92;100873.60;1636421;84;20207;-76
2022/09/24 01:01:40;;;;;;;;;;;;;;;10.71;64.94;100863.71;1661825;84;20523;-76
2022/09/24 01:04:26;;;;;;;;;;;;;;;10.70;64.94;100863.30;1630729;85;20235;-76
2022/09/24 01:07:10;;;;;;;;;;;;;;;10.70;65.04;100862.00;1646741;85;20431;-76
2022/09/24 01:09:55;;;;;;;;;;;;;;;10.68;65.06;100855.55;1651292;85;20213;-76
2022/09/24 01:12:52;;;;;;;;;;;;;;;10.67;65.06;100853.84;1649395;85;20187;-76
2022/09/24 01:15:44;;;;;;;;;;;;;;;10.68;65.12;100855.99;1644104;85;20158;-77
2022/09/24 01:18:38;;;;;;;;;;;;;;;10.68;65.08;100850.38;1660564;85;20224;-77
2022/09/24 01:21:30;;;;;;;;;;;;;;;10.69;65.16;100851.23;1647235;85;20181;-77
2022/09/24 01:24:39;;;;;;;;;;;;;;;10.67;65.17;100847.37;1636011;85;20219;-77
2022/09/24 01:27:33;;;;;;;;;;;;;;;10.67;65.10;100850.40;1636699;85;20444;-76
2022/09/24 01:30:18;;;;;;;;;;;;;;;10.65;65.17;100845.69;1628037;85;20205;-77
2022/09/24 01:33:04;;;;;;;;;;;;;;;10.64;65.21;100842.25;1634596;85;20191;-77
2022/09/24 01:35:51;;;;;;;;;;;;;;;10.64;65.21;100837.51;1668387;85;20184;-77
2022/09/24 01:38:39;;;;;;;;;;;;;;;10.61;65.20;100838.41;1653804;85;20217;-76
2022/09/24 01:41:24;;;;;;;;;;;;;;;10.60;65.17;100837.55;1639096;85;20206;-76
2022/09/24 01:44:10;;;;;;;;;;;;;;;10.59;65.19;100834.98;1666561;85;20181;-76
2022/09/24 01:46:55;;;;;;;;;;;;;;;10.59;65.17;100833.69;1631853;85;20235;-76
2022/09/24 01:49:39;;;;;;;;;;;;;;;10.58;65.21;100834.56;1653155;85;20208;-76
2022/09/24 01:52:27;;;;;;;;;;;;;;;10.56;65.22;100836.31;1663038;85;20195;-76
2022/09/24 01:55:14;;;;;;;;;;;;;;;10.55;65.25;100830.28;1651686;85;20231;-76
2022/09/24 01:58:09;;;;;;;;;;;;;;;10.54;65.27;100832.89;1657430;85;20490;-76
2022/09/24 02:00:57;;;;;;;;;;;;;;;10.53;65.28;100833.33;1638039;85;20239;-76
2022/09/24 02:03:45;;;;;;;;;;;;;;;10.51;65.33;100828.61;1639225;85;20222;-76
2022/09/24 02:06:39;;;;;;;;;;;;;;;10.52;65.31;100832.91;1643958;86;20471;-76
2022/09/24 02:09:33;;;;;;;;;;;;;;;10.52;65.36;100834.20;1638230;84;20258;-76
2022/09/24 02:12:22;;;;;;;;;;;;;;;10.51;65.37;100833.78;1625346;86;20177;-76
2022/09/24 02:15:14;;;;;;;;;;;;;;;10.50;65.38;100823.45;1638339;86;21061;-77
2022/09/24 02:18:02;;;;;;;;;;;;;;;10.49;65.44;100823.89;1633114;86;20177;-77
2022/09/24 02:20:46;;;;;;;;;;;;;;;10.48;65.38;100822.62;1655855;86;20233;-77
2022/09/24 02:23:35;;;;;;;;;;;;;;;10.48;65.40;100825.20;1643788;86;20172;-77
2022/09/24 02:26:21;;;;;;;;;;;;;;;10.47;65.40;100820.47;1634016;86;20183;-77
2022/09/24 02:29:06;;;;;;;;;;;;;;;10.46;65.44;100823.08;1644231;86;20207;-77
2022/09/24 02:31:53;;;;;;;;;;;;;;;10.41;65.46;100821.84;1642071;86;20229;-77
2022/09/24 02:34:45;;;;;;;;;;;;;;;10.41;65.54;100828.73;1637324;85;370995;-77
2022/09/24 02:37:36;;;;;;;;;;;;;;;10.38;65.55;100818.47;1640866;85;181206;-77
2022/09/24 02:40:21;;;;;;;;;;;;;;;10.38;65.59;100814.59;1650685;86;21044;-76
2022/09/24 02:43:05;;;;;;;;;;;;;;;10.36;65.57;100807.28;1656019;86;20528;-76
2022/09/24 02:45:50;;;;;;;;;;;;;;;10.36;65.60;100810.73;1628526;86;20208;-76
2022/09/24 02:48:36;;;;;;;;;;;;;;;10.36;65.61;100805.56;1662822;86;20669;-76
2022/09/24 02:51:20;;;;;;;;;;;;;;;10.36;65.64;100809.87;1652146;86;20633;-77
2022/09/24 02:54:05;;;;;;;;;;;;;;;10.35;65.69;100805.14;1637391;84;20461;-77
2022/09/24 02:56:51;;;;;;;;;;;;;;;10.34;65.67;100806.02;1644216;86;20280;-77
2022/09/24 02:59:35;;;;;;;;;;;;;;;10.33;65.71;100800.42;1652958;86;20137;-77
2022/09/24 03:02:20;;;;;;;;;;;;;;;10.32;65.79;100802.59;1624482;86;20371;-77
2022/09/24 03:05:06;;;;;;;;;;;;;;;10.31;65.85;100802.17;1661807;86;20182;-77
2022/09/24 03:07:50;;;;;;;;;;;;;;;10.33;65.83;100796.98;1636987;86;20161;-77
2022/09/24 03:10:35;;;;;;;;;;;;;;;10.34;65.81;100801.28;1647146;86;20326;-77
2022/09/24 03:13:19;;;;;;;;;;;;;;;10.33;65.90;100800.42;1633204;86;20221;-76
2022/09/24 03:16:06;;;;;;;;;;;;;;;10.32;65.90;100794.84;1648821;86;20194;-76
2022/09/24 03:18:50;;;;;;;;;;;;;;;10.33;66.02;100803.01;1621767;86;20181;-76
2022/09/24 03:21:35;;;;;;;;;;;;;;;10.34;65.94;100793.53;1637716;86;20196;-77
2022/09/24 03:24:20;;;;;;;;;;;;;;;10.33;66.01;100795.26;1655579;86;20257;-77
2022/09/24 03:27:05;;;;;;;;;;;;;;;10.33;66.05;100796.55;1647727;86;20191;-77
2022/09/24 03:32:52;;;;;;;;;;;;;;;10.32;66.04;100789.67;1632670;86;20217;-77
2022/09/24 03:35:38;;;;;;;;;;;;;;;10.33;66.07;100787.50;1638333;86;38454;-77
2022/09/24 03:38:23;;;;;;;;;;;;;;;10.33;66.11;100786.21;1635292;86;20196;-76
2022/09/24 03:41:09;;;;;;;;;;;;;;;10.32;66.16;100787.52;1627839;86;20599;-77
2022/09/24 03:43:54;;;;;;;;;;;;;;;10.32;66.10;100784.94;1618316;86;20184;-77
2022/09/24 03:46:39;;;;;;;;;;;;;;;10.33;66.06;100781.48;1634567;86;21171;-77
2022/09/24 03:49:24;;;;;;;;;;;;;;;10.32;66.21;100786.23;1627123;86;20213;-77
2022/09/24 03:52:09;;;;;;;;;;;;;;;10.29;66.27;100785.83;1638071;86;20230;-78
2022/09/24 03:54:53;;;;;;;;;;;;;;;10.27;66.20;100785.84;1639064;86;20133;-77
2022/09/24 03:57:38;;;;;;;;;;;;;;;10.27;66.28;100783.26;1653890;86;20603;-77
2022/09/24 04:00:23;;;;;;;;;;;;;;;10.28;66.22;100781.53;1623335;86;20148;-77
2022/09/24 04:03:07;;;;;;;;;;;;;;;10.27;66.29;100781.11;1641666;86;20192;-77
2022/09/24 04:05:53;;;;;;;;;;;;;;;10.27;66.30;100783.26;1638205;87;20344;-77
2022/09/24 04:08:37;;;;;;;;;;;;;;;10.28;66.33;100786.70;1626933;86;20139;-77
2022/09/24 04:11:23;;;;;;;;;;;;;;;10.26;66.40;100783.28;1612641;87;20553;-77
2022/09/24 04:14:08;;;;;;;;;;;;;;;10.27;66.37;100781.11;1618506;87;20555;-77
2022/09/24 04:16:53;;;;;;;;;;;;;;;10.28;66.37;100777.22;1638359;87;20361;-77
2022/09/24 04:19:38;;;;;;;;;;;;;;;10.28;66.40;100774.63;1620842;86;20220;-77
2022/09/24 04:22:25;;;;;;;;;;;;;;;10.28;66.38;100772.48;1660875;86;20195;-77
2022/09/24 04:25:09;;;;;;;;;;;;;;;10.30;66.40;100771.17;1638760;86;20223;-77
2022/09/24 04:27:56;;;;;;;;;;;;;;;10.29;66.40;100774.20;1625913;86;20771;-76
2022/09/24 04:30:40;;;;;;;;;;;;;;;10.30;66.41;100774.62;1646326;86;20138;-76
2022/09/24 04:33:25;;;;;;;;;;;;;;;10.30;66.39;100776.34;1639644;87;20130;-76
2022/09/24 04:36:09;;;;;;;;;;;;;;;10.30;66.42;100773.32;1639822;87;20113;-76
2022/09/24 04:38:54;;;;;;;;;;;;;;;10.29;66.42;100767.73;1636381;86;20456;-76
2022/09/24 04:41:39;;;;;;;;;;;;;;;10.30;66.42;100775.05;1616864;87;20106;-76
2022/09/24 04:44:23;;;;;;;;;;;;;;;10.29;66.54;100767.73;1637857;86;20138;-76
2022/09/24 04:47:07;;;;;;;;;;;;;;;10.28;66.47;100768.17;1653398;86;20774;-77
2022/09/24 04:49:51;;;;;;;;;;;;;;;10.28;66.53;100767.31;1629105;86;20158;-77
2022/09/24 04:52:37;;;;;;;;;;;;;;;10.27;66.59;100769.05;1653112;86;20976;-77
2022/09/24 04:55:22;;;;;;;;;;;;;;;10.27;66.54;100766.90;1629762;86;20193;-77
2022/09/24 04:58:08;;;;;;;;;;;;;;;10.27;66.55;100769.48;1644953;86;20131;-77
2022/09/24 05:00:52;;;;;;;;;;;;;;;10.28;66.51;100766.88;1654118;86;20530;-77
2022/09/24 05:03:37;;;;;;;;;;;;;;;10.28;66.52;100765.59;1651069;86;20181;-77
2022/09/24 05:06:22;;;;;;;;;;;;;;;10.27;66.67;100762.59;1686530;84;20199;-77
2022/09/24 05:09:06;;;;;;;;;;;;;;;10.29;66.67;100767.73;1672414;84;20558;-77
2022/09/24 05:11:51;;;;;;;;;;;;;;;10.30;66.61;100768.59;1659752;84;20167;-78
2022/09/24 05:14:36;;;;;;;;;;;;;;;10.30;66.61;100763.42;1665970;83;20257;-77
2022/09/24 05:17:21;;;;;;;;;;;;;;;10.30;66.72;100761.69;1653315;84;20269;-77
2022/09/24 05:20:07;;;;;;;;;;;;;;;10.32;66.78;100762.97;1658906;84;20197;-77
2022/09/24 05:22:51;;;;;;;;;;;;;;;10.33;66.75;100765.53;1658318;84;20188;-77
2022/09/24 05:27:07;;;;;;;;;;;;;;;10.36;66.77;100764.20;1655873;84;20234;-77
2022/09/24 05:28:23;;;;;;;;;;;;;;;10.37;66.82;100762.03;1599388;84;5000819;-77
2022/09/24 05:31:09;;;;;;;;;;;;;;;10.40;66.89;100761.14;1656787;84;20199;-77
2022/09/24 05:33:53;;;;;;;;;;;;;;;10.41;66.95;100760.23;1659896;84;20210;-77
2022/09/24 05:36:38;;;;;;;;;;;;;;;10.43;66.92;100763.66;1656390;84;20208;-77
2022/09/24 05:39:23;;;;;;;;;;;;;;;10.44;66.89;100759.75;1652810;84;20133;-76
2022/09/24 05:42:14;;;;;;;;;;;;;;;10.48;66.91;100759.28;1654580;84;20524;-76
2022/09/24 05:44:59;;;;;;;;;;;;;;;10.51;66.96;100753.63;1659859;84;20621;-76
2022/09/24 05:47:45;;;;;;;;;;;;;;;10.56;66.93;100757.01;1655516;84;20243;-76
2022/09/24 05:50:30;;;;;;;;;;;;;;;10.60;66.94;100757.83;1662018;84;20130;-76
2022/09/24 05:53:14;;;;;;;;;;;;;;;10.66;66.93;100763.35;1654725;84;20109;-76
2022/09/24 05:55:59;;;;;;;;;;;;;;;10.71;66.99;100761.55;1662826;84;20121;-76
2022/09/24 05:58:43;;;;;;;;;;;;;;;10.76;66.95;100756.73;1664404;84;20441;-76
2022/09/24 06:01:31;;;;;;;;;;;;;;;10.83;67.08;100760.94;1656398;84;20141;-76
2022/09/24 06:04:15;;;;;;;;;;;;;;;10.88;66.99;100763.02;1660266;84;20136;-76
2022/09/24 06:07:02;;;;;;;;;;;;;;;10.95;67.03;100766.34;1665904;84;20129;-77
2022/09/24 06:09:46;;;;;;;;;;;;;;;11.00;67.20;100763.25;1659585;84;20133;-77
2022/09/24 06:12:33;;;;;;;;;;;;;;;11.05;67.14;100763.18;1663032;84;20122;-77
2022/09/24 06:15:18;;;;;;;;;;;;;;;11.09;67.13;100765.70;1666830;84;20115;-79
2022/09/24 06:18:03;;;;;;;;;;;;;;;11.13;67.15;100763.48;1664890;84;20137;-79
2022/09/24 06:20:47;;;;;;;;;;;;;;;11.19;67.16;100765.97;1671502;84;20130;-79
2022/09/24 06:23:32;;;;;;;;;;;;;;;11.25;67.20;100766.30;1648248;84;28891;-79
2022/09/24 06:26:17;;;;;;;;;;;;;;;11.30;67.17;100772.27;1662017;84;20209;-79
2022/09/24 06:29:02;;;;;;;;;;;;;;;11.34;67.13;100766.16;1666516;84;20510;-79
2022/09/24 06:31:47;;;;;;;;;;;;;;;11.39;67.15;100768.67;1661864;84;20246;-79
2022/09/24 06:34:31;;;;;;;;;;;;;;;11.41;67.17;100763.88;1658596;84;20482;-79
2022/09/24 06:37:16;;;;;;;;;;;;;;;11.45;67.11;100760.77;1674614;84;20194;-78
2022/09/24 06:40:01;;;;;;;;;;;;;;;11.47;67.17;100760.30;1665729;84;20518;-77
2022/09/24 06:42:49;;;;;;;;;;;;;;;11.52;67.15;100763.23;1660971;84;20187;-77
2022/09/24 06:45:34;;;;;;;;;;;;;;;11.56;67.16;100765.33;1663458;84;20503;-77
2022/09/24 06:48:18;;;;;;;;;;;;;;;11.61;67.17;100767.39;1659882;84;20216;-77
2022/09/24 06:51:06;;;;;;;;;;;;;;;11.65;67.18;100763.02;1659018;84;20457;-79
2022/09/24 06:53:51;;;;;;;;;;;;;;;11.68;67.05;100763.81;1655838;84;20511;-78
2022/09/24 06:56:36;;;;;;;;;;;;;;;11.75;67.11;100761.52;1665420;84;20185;-77
2022/09/24 06:59:21;;;;;;;;;;;;;;;11.79;67.08;100764.50;1662709;84;20230;-77
2022/09/24 07:02:07;;;;;;;;;;;;;;;11.86;67.10;100767.39;1658655;84;20213;-78
2022/09/24 07:04:51;;;;;;;;;;;;;;;11.93;67.12;100772.02;1677575;84;20488;-78
2022/09/24 07:07:36;;;;;;;;;;;;;;;12.00;67.14;100773.58;1662737;84;20213;-77
2022/09/24 07:10:23;;;;;;;;;;;;;;;12.09;67.15;100773.84;1674209;84;20597;-77
2022/09/24 07:13:08;;;;;;;;;;;;;;;12.14;67.05;100774.61;1679134;84;21317;-77
2022/09/24 07:15:52;;;;;;;;;;;;;;;12.20;66.99;100778.38;1672743;84;20140;-77
2022/09/24 07:18:37;;;;;;;;;;;;;;;12.25;66.99;100781.73;1656593;84;20228;-79
2022/09/24 07:21:22;;;;;;;;;;;;;;;12.32;67.05;100784.62;1654321;84;20460;-79
2022/09/24 07:24:06;;;;;;;;;;;;;;;12.42;67.08;100793.06;1661959;84;20209;-78
2022/09/24 07:26:51;;;;;;;;;;;;;;;12.48;66.97;100791.16;1658351;84;20211;-77
2022/09/24 07:29:35;;;;;;;;;;;;;;;12.53;66.96;100794.95;1670098;84;20158;-78
2022/09/24 07:32:20;;;;;;;;;;;;;;;12.58;66.99;100795.72;1656219;84;20558;-77
2022/09/24 07:35:06;;;;;;;;;;;;;;;12.64;66.94;100796.89;1656483;84;20175;-77
2022/09/24 07:38:02;;;;;;;;;;;;;;;12.66;66.98;100789.92;1658664;84;20205;-76
2022/09/24 07:40:46;;;;;;;;;;;;;;;12.70;67.07;100790.71;1656428;84;20249;-76
2022/09/24 07:43:32;;;;;;;;;;;;;;;12.76;67.03;100792.73;1657301;84;20512;-77
2022/09/24 07:46:18;;;;;;;;;;;;;;;12.84;67.05;100788.22;1658394;84;20391;-77
2022/09/24 07:49:03;;;;;;;;;;;;;;;12.89;66.91;100795.91;1660467;84;20536;-77
2022/09/24 07:51:48;;;;;;;;;;;;;;;12.96;66.93;100791.43;1659341;84;20169;-77
2022/09/24 07:54:33;;;;;;;;;;;;;;;13.01;66.75;100796.04;1659665;84;20457;-77
2022/09/24 07:57:17;;;;;;;;;;;;;;;13.06;66.72;100796.79;1660797;84;20201;-77
2022/09/24 08:00:03;;;;;;;;;;;;;;;13.11;66.67;100794.94;1656733;84;20396;-77
2022/09/24 08:02:50;;;;;;;;;;;;;;;13.16;66.64;100799.17;1659607;84;20205;-77
2022/09/24 08:05:37;;;;;;;;;;;;;;;13.23;66.71;100802.03;1661563;84;20232;-76
2022/09/24 08:08:21;;;;;;;;;;;;;;;13.29;66.65;100795.84;1639061;84;20141;-76
2022/09/24 08:11:07;;;;;;;;;;;;;;;13.35;66.68;100797.44;1660381;84;20177;-77
2022/09/24 08:13:52;;;;;;;;;;;;;;;13.42;66.57;100792.50;1656652;84;20156;-77
2022/09/24 08:16:38;;;;;;;;;;;;;;;13.47;66.51;100793.23;1662535;83;20202;-77
2022/09/24 08:19:23;;;;;;;;;;;;;;;13.52;66.47;100797.39;1665798;84;20220;-77
2022/09/24 08:22:07;;;;;;;;;;;;;;;13.55;66.51;100794.72;1663067;84;21251;-77
2022/09/24 08:24:52;;;;;;;;;;;;;;;13.64;66.51;100797.53;1662161;84;20397;-77
2022/09/24 08:27:36;;;;;;;;;;;;;;;13.73;66.53;100797.30;1667185;84;20218;-77
2022/09/24 08:30:23;;;;;;;;;;;;;;;13.83;66.44;100798.77;1667442;84;20565;-77
2022/09/24 08:33:09;;;;;;;;;;;;;;;13.92;66.40;100797.67;1669799;84;20234;-77
2022/09/24 08:35:53;;;;;;;;;;;;;;;14.01;66.43;100803.07;1644633;86;20113;-77
2022/09/24 08:38:38;;;;;;;;;;;;;;;14.08;66.34;100801.98;1653033;84;20189;-77
2022/09/24 08:41:32;;;;;;;;;;;;;;;14.13;66.32;100797.05;1657506;84;20167;-77
2022/09/24 08:47:53;;;;;;;;;;;;;;;14.24;66.33;100799.36;1659027;84;20191;-77
2022/09/24 08:50:41;;;;;;;;;;;;;;;14.30;66.32;100803.54;1662264;84;20178;-77
2022/09/24 08:53:31;;;;;;;;;;;;;;;14.33;66.18;100806.91;1659061;84;20217;-77
2022/09/24 08:56:28;;;;;;;;;;;;;;;14.34;66.13;100803.86;1658469;84;20165;-77
2022/09/24 08:59:22;;;;;;;;;;;;;;;14.37;66.24;100800.72;1659315;84;20201;-77
2022/09/24 09:02:34;;;;;;;;;;;;;;;14.44;66.17;100803.59;1662149;84;20205;-77
2022/09/24 09:05:26;;;;;;;;;;;;;;;14.50;66.23;100805.16;1654979;84;20215;-77
2022/09/24 09:08:15;;;;;;;;;;;;;;;14.56;66.21;100801.90;1646261;85;20632;-77
2022/09/24 09:11:02;;;;;;;;;;;;;;;14.64;66.03;100802.13;1646268;85;20188;-77
2022/09/24 09:13:56;;;;;;;;;;;;;;;14.69;66.09;100798.48;1636393;85;20181;-77
2022/09/24 09:17:00;;;;;;;;;;;;;;;14.79;66.17;100800.36;1648996;85;20323;-77
2022/09/24 09:19:48;;;;;;;;;;;;;;;14.88;65.97;100796.18;1646424;85;20174;-77
2022/09/24 09:22:39;;;;;;;;;;;;;;;14.97;65.96;100798.95;1650746;85;20316;-77
2022/09/24 09:25:27;;;;;;;;;;;;;;;15.07;65.90;100805.12;1653890;85;20249;-77
2022/09/24 09:28:16;;;;;;;;;;;;;;;15.14;65.50;100807.91;1642799;85;20328;-77
2022/09/24 09:31:10;;;;;;;;;;;;;;;15.21;65.78;100799.45;1658210;85;20190;-77
2022/09/24 09:34:20;;;;;;;;;;;;;;;15.29;65.68;100801.81;1669186;85;20207;-77
2022/09/24 09:37:24;;;;;;;;;;;;;;;15.36;65.67;100800.71;1642698;85;20216;-77
2022/09/24 09:40:12;;;;;;;;;;;;;;;15.47;65.74;100803.37;1658443;85;20677;-76
2022/09/24 09:43:05;;;;;;;;;;;;;;;15.59;65.52;100802.14;1674795;85;20507;-76
2022/09/24 09:46:12;;;;;;;;;;;;;;;15.62;65.37;100805.06;1646296;85;20240;-76
2022/09/24 09:48:59;;;;;;;;;;;;;;;15.60;65.39;100804.30;1651699;85;20184;-77
2022/09/24 09:51:46;;;;;;;;;;;;;;;15.63;65.34;100806.77;1645889;85;20210;-77
2022/09/24 09:54:38;;;;;;;;;;;;;;;15.75;65.50;100802.45;1655167;85;20217;-77
2022/09/24 09:57:24;;;;;;;;;;;;;;;15.86;65.19;100800.32;1641856;85;20229;-77
2022/09/24 10:00:13;;;;;;;;;;;;;;;15.98;65.33;100795.13;1643935;85;20223;-77
2022/09/24 10:02:58;;;;;;;;;;;;;;;16.14;65.27;100799.72;1642047;85;20142;-77
2022/09/24 10:05:46;;;;;;;;;;;;;;;16.25;65.11;100794.56;1652777;85;20888;-77
2022/09/24 10:08:30;;;;;;;;;;;;;;;16.34;65.04;100795.08;1643624;84;20116;-77
2022/09/24 10:11:16;;;;;;;;;;;;;;;16.41;64.81;100798.32;1642764;85;20131;-77
2022/09/24 10:14:05;;;;;;;;;;;;;;;16.51;64.87;100795.77;1651907;85;20124;-77
2022/09/24 10:16:54;;;;;;;;;;;;;;;16.61;64.77;100797.13;1654343;85;20458;-77
2022/09/24 10:19:39;;;;;;;;;;;;;;;16.69;64.42;100794.22;1648132;85;20552;-77
2022/09/24 10:22:26;;;;;;;;;;;;;;;16.78;64.50;100795.17;1652957;85;20121;-77
2022/09/24 10:25:25;;;;;;;;;;;;;;;16.91;64.59;100791.63;1653649;85;20114;-77
2022/09/24 10:31:22;;;;;;;;;;;;;;;17.01;64.28;100791.22;1660883;85;20111;-77
2022/09/24 10:34:19;;;;;;;;;;;;;;;17.13;64.28;100786.81;1660963;85;20543;-77
2022/09/24 10:37:15;;;;;;;;;;;;;;;17.20;64.10;100786.08;1658742;85;20158;-77
2022/09/24 10:40:03;;;;;;;;;;;;;;;17.32;64.22;100784.72;1648781;85;20198;-76
2022/09/24 10:42:56;;;;;;;;;;;;;;;17.31;63.38;100783.02;1661340;85;20676;-77
2022/09/24 10:45:56;;;;;;;;;;;;;;;17.28;63.78;100781.38;1637906;85;21023;-77
2022/09/24 10:48:50;;;;;;;;;;;;;;;17.27;63.87;100776.22;1646199;85;20656;-77
2022/09/24 10:51:50;;;;;;;;;;;;;;;17.21;63.36;100783.85;1610332;85;20214;-77
2022/09/24 10:54:42;;;;;;;;;;;;;;;17.15;63.45;100777.14;1642369;85;20135;-77
2022/09/24 10:57:39;;;;;;;;;;;;;;;17.14;63.56;100774.59;1665257;85;20534;-76
2022/09/24 11:00:33;;;;;;;;;;;;;;;17.14;63.46;100774.14;1667072;85;20175;-76
2022/09/24 11:03:47;;;;;;;;;;;;;;;17.15;63.46;100768.00;1650645;85;20170;-76
2022/09/24 11:07:04;;;;;;;;;;;;;;;17.17;63.28;100763.53;1663084;84;20632;-76
2022/09/24 11:10:13;;;;;;;;;;;;;;;17.13;62.72;100758.06;1637857;86;20184;-76
2022/09/24 11:13:03;;;;;;;;;;;;;;;17.16;63.21;100759.21;1639299;86;20186;-76
2022/09/24 11:16:11;;;;;;;;;;;;;;;17.25;62.79;100759.75;1642657;86;21293;-77
2022/09/24 11:19:22;;;;;;;;;;;;;;;17.30;62.58;100758.65;1637907;86;20562;-77
2022/09/24 11:22:15;;;;;;;;;;;;;;;17.31;62.38;100749.05;1643825;86;20253;-77
2022/09/24 11:25:38;;;;;;;;;;;;;;;17.30;62.23;100752.57;1643134;86;20242;-77
2022/09/24 11:28:44;;;;;;;;;;;;;;;17.31;62.29;100749.05;1631338;85;20242;-77
2022/09/24 11:31:41;;;;;;;;;;;;;;;17.34;62.03;100753.69;1631057;86;20525;-77
2022/09/24 11:34:49;;;;;;;;;;;;;;;17.36;62.00;100753.62;1633306;86;20162;-77
2022/09/24 11:37:48;;;;;;;;;;;;;;;17.36;62.17;100747.94;1637971;86;20174;-77
2022/09/24 11:40:48;;;;;;;;;;;;;;;17.36;62.04;100748.40;1579441;89;20497;-76
2022/09/24 11:44:12;;;;;;;;;;;;;;;17.39;61.94;100752.19;1580407;88;20206;-77
2022/09/24 11:47:32;;;;;;;;;;;;;;;17.34;61.79;100753.69;1612132;87;20191;-77
2022/09/24 11:50:29;;;;;;;;;;;;;;;17.29;61.57;100750.88;1602346;87;20174;-76
2022/09/24 11:53:33;;;;;;;;;;;;;;;17.16;61.16;100746.15;1602563;87;20249;-76
2022/09/24 11:56:30;;;;;;;;;;;;;;;17.09;61.52;100749.95;1610903;87;20652;-76
2022/09/24 11:59:46;;;;;;;;;;;;;;;17.09;61.34;100751.72;1618354;87;20478;-76
2022/09/24 12:02:49;;;;;;;;;;;;;;;17.09;61.32;100754.33;1613431;87;20513;-76
2022/09/24 12:05:37;;;;;;;;;;;;;;;17.07;61.18;100754.84;1606813;87;20201;-76
2022/09/24 12:08:37;;;;;;;;;;;;;;;17.06;61.16;100753.15;1611215;87;20469;-76
2022/09/24 12:11:31;;;;;;;;;;;;;;;17.04;61.21;100754.52;1616098;87;20514;-76
2022/09/24 12:14:26;;;;;;;;;;;;;;;17.00;61.04;100751.63;1608302;87;20532;-76
2022/09/24 12:17:14;;;;;;;;;;;;;;;16.99;61.08;100751.23;1603307;87;20197;-76
2022/09/24 12:20:06;;;;;;;;;;;;;;;17.01;61.14;100755.95;1597044;87;20149;-76
2022/09/24 12:22:58;;;;;;;;;;;;;;;17.02;61.09;100753.73;1620772;87;20199;-77
2022/09/24 12:25:44;;;;;;;;;;;;;;;17.02;60.93;100752.42;1597608;87;20204;-77
2022/09/24 12:35:13;;;;;;;;;;;;;;;17.10;60.76;100752.11;1608802;85;20180;-77
2022/09/24 12:38:13;;;;;;;;;;;;;;;17.15;60.69;100750.16;1611830;87;20162;-77
2022/09/24 12:41:26;;;;;;;;;;;;;;;17.15;60.48;100743.62;1603674;87;20230;-76
2022/09/24 12:44:14;;;;;;;;;;;;;;;17.16;59.95;100746.15;1608785;87;20474;-76
2022/09/24 12:46:59;;;;;;;;;;;;;;;17.20;60.60;100747.72;1619205;87;20493;-76
2022/09/24 12:49:50;;;;;;;;;;;;;;;17.23;60.33;100742.83;1605657;87;20610;-76
2022/09/24 12:52:42;;;;;;;;;;;;;;;17.25;60.07;100742.77;1599186;87;20213;-76
2022/09/24 12:55:33;;;;;;;;;;;;;;;17.28;60.16;100735.65;1569541;89;20183;-76
2022/09/24 12:58:36;;;;;;;;;;;;;;;17.30;60.28;100729.90;1572572;87;20288;-76
2022/09/24 13:01:24;;;;;;;;;;;;;;;17.28;59.99;100733.48;1609443;87;20221;-76
2022/09/24 13:04:19;;;;;;;;;;;;;;;17.27;59.39;100725.25;1604912;87;20278;-76
2022/09/24 13:07:07;;;;;;;;;;;;;;;17.29;59.59;100731.27;1592570;87;20279;-76
2022/09/24 13:09:52;;;;;;;;;;;;;;;17.29;59.62;100729.51;1620359;87;20247;-76
2022/09/24 13:12:37;;;;;;;;;;;;;;;17.34;59.20;100726.70;1642906;86;20484;-76
2022/09/24 13:15:41;;;;;;;;;;;;;;;17.32;59.25;100720.23;1641858;85;20561;-76
2022/09/24 13:18:26;;;;;;;;;;;;;;;17.29;59.00;100716.89;1662183;85;20190;-76
2022/09/24 13:21:28;;;;;;;;;;;;;;;17.21;59.22;100714.59;1651744;85;20202;-76
2022/09/24 13:24:17;;;;;;;;;;;;;;;17.16;59.40;100712.63;1601147;87;20190;-76
2022/09/24 13:27:27;;;;;;;;;;;;;;;17.12;59.07;100717.17;1630733;86;20241;-76
2022/09/24 13:30:15;;;;;;;;;;;;;;;17.09;59.26;100713.38;1656027;84;20497;-76
2022/09/24 13:33:22;;;;;;;;;;;;;;;17.04;59.06;100707.95;1654170;84;20197;-76
2022/09/24 13:36:16;;;;;;;;;;;;;;;16.97;58.78;100706.04;1665798;84;20461;-76
2022/09/24 13:39:19;;;;;;;;;;;;;;;16.90;58.92;100705.89;1663692;84;20239;-76
2022/09/24 13:42:41;;;;;;;;;;;;;;;16.83;58.69;100706.59;1662285;83;20516;-76
2022/09/24 13:45:27;;;;;;;;;;;;;;;16.79;58.79;100710.70;1655187;84;20237;-76
2022/09/24 13:48:18;;;;;;;;;;;;;;;16.73;58.83;100705.27;1667214;84;20190;-76
2022/09/24 13:51:04;;;;;;;;;;;;;;;16.69;58.62;100705.44;1684904;83;20161;-76
2022/09/24 13:53:58;;;;;;;;;;;;;;;16.67;58.63;100704.66;1663003;84;20197;-76
2022/09/24 13:56:58;;;;;;;;;;;;;;;16.64;58.63;100700.41;1668756;84;20502;-76
2022/09/24 13:59:43;;;;;;;;;;;;;;;16.64;58.72;100701.71;1669647;84;20492;-76
2022/09/24 14:02:30;;;;;;;;;;;;;;;16.65;58.71;100699.49;1665879;84;20245;-76
2022/09/24 14:05:16;;;;;;;;;;;;;;;16.67;58.59;100695.06;1658845;84;21047;-76
2022/09/24 14:08:07;;;;;;;;;;;;;;;16.70;58.55;100695.39;1638481;84;20212;-76
2022/09/24 14:10:55;;;;;;;;;;;;;;;16.73;58.55;100692.66;1652079;85;20248;-76
2022/09/24 14:13:47;;;;;;;;;;;;;;;16.75;58.44;100690.38;1634119;85;20207;-76
2022/09/24 14:16:29;;;;;;;;;;;;;;;16.80;58.57;100691.05;1648175;84;20470;-77
2022/09/24 14:19:15;;;;;;;;;;;;;;;16.83;58.41;100688.77;1641068;85;20275;-77
2022/09/24 14:22:01;;;;;;;;;;;;;;;16.86;58.42;100686.03;1634466;85;20262;-77
2022/09/24 14:25:01;;;;;;;;;;;;;;;16.87;58.36;100680.75;1646085;86;20198;-77
2022/09/24 14:27:48;;;;;;;;;;;;;;;16.93;58.02;100691.41;1634027;86;20218;-77
2022/09/24 14:30:35;;;;;;;;;;;;;;;16.98;57.81;100688.15;1635727;86;20193;-77
2022/09/24 14:33:24;;;;;;;;;;;;;;;17.00;57.72;100682.41;1639312;86;20146;-77
2022/09/24 14:36:11;;;;;;;;;;;;;;;17.05;57.21;100682.21;1637241;84;20224;-76
2022/09/24 14:39:01;;;;;;;;;;;;;;;17.10;57.71;100677.19;1637044;85;20852;-76
2022/09/24 14:41:46;;;;;;;;;;;;;;;17.14;57.83;100680.06;1636712;85;20524;-76
2022/09/24 14:44:31;;;;;;;;;;;;;;;17.18;57.58;100680.30;1642698;86;20201;-76
2022/09/24 14:47:27;;;;;;;;;;;;;;;17.21;57.49;100685.40;1634025;85;20252;-76
2022/09/24 14:50:34;;;;;;;;;;;;;;;17.26;57.69;100684.35;1642036;85;20264;-76